createdAt,value
2023-04-22T00:01:14.735Z,7.80
2023-04-22T00:03:42.353Z,8.52
2023-04-22T00:06:09.041Z,7.28
2023-04-22T00:08:35.580Z,12.57
2023-04-22T00:11:02.375Z,8.43
2023-04-22T00:13:29.043Z,13.00
2023-04-22T00:15:55.575Z,9.60
2023-04-22T00:18:22.152Z,8.52
2023-04-22T00:20:48.597Z,8.00
2023-04-22T00:23:15.014Z,8.25
2023-04-22T00:25:41.484Z,10.23
2023-04-22T00:28:08.109Z,7.93
2023-04-22T00:30:35.787Z,8.77
2023-04-22T00:33:02.294Z,8.05
2023-04-22T00:35:29.191Z,10.85
2023-04-22T00:37:55.867Z,8.55
2023-04-22T00:40:22.465Z,11.75
2023-04-22T00:42:50.748Z,8.77
2023-04-22T00:45:18.965Z,9.55
2023-04-22T00:47:46.429Z,7.32
2023-04-22T00:50:13.230Z,8.57
2023-04-22T00:52:39.693Z,10.80
2023-04-22T00:55:06.866Z,8.23
2023-04-22T00:57:35.843Z,9.10
2023-04-22T01:00:03.717Z,10.25
2023-04-22T01:02:30.510Z,8.23
2023-04-22T01:04:58.868Z,5.65
2023-04-22T01:07:25.385Z,5.00
2023-04-22T01:09:51.988Z,6.47
2023-04-22T01:12:18.472Z,9.82
2023-04-22T01:14:44.930Z,9.50
2023-04-22T01:17:12.307Z,10.25
2023-04-22T01:19:39.100Z,11.50
2023-04-22T01:22:08.001Z,13.18
2023-04-22T01:24:34.847Z,9.23
2023-04-22T01:27:01.995Z,10.25
2023-04-22T01:29:28.736Z,10.25
2023-04-22T01:31:56.025Z,10.77
2023-04-22T01:34:22.711Z,10.38
2023-04-22T01:36:50.802Z,9.70
2023-04-22T01:39:17.982Z,9.57
2023-04-22T01:41:44.579Z,9.95
2023-04-22T01:44:11.297Z,12.27
2023-04-22T01:46:37.936Z,10.02
2023-04-22T01:49:06.073Z,10.00
2023-04-22T01:51:32.686Z,9.32
2023-04-22T01:53:59.309Z,10.68
2023-04-22T01:56:26.026Z,10.02
2023-04-22T01:58:52.476Z,13.07
2023-04-22T02:01:19.320Z,9.95
2023-04-22T02:03:45.956Z,9.32
2023-04-22T02:06:13.607Z,8.70
2023-04-22T02:08:40.177Z,8.27
2023-04-22T02:11:06.676Z,10.60
2023-04-22T02:13:40.765Z,8.90
2023-04-22T02:16:08.170Z,8.85
2023-04-22T02:18:35.152Z,9.75
2023-04-22T02:21:01.807Z,8.27
2023-04-22T02:23:28.942Z,8.05
2023-04-22T02:25:56.007Z,8.80
2023-04-22T02:28:22.694Z,8.45
2023-04-22T02:30:49.202Z,8.43
2023-04-22T02:33:15.674Z,7.32
2023-04-22T02:35:42.137Z,12.02
2023-04-22T02:38:08.609Z,7.50
2023-04-22T02:40:35.126Z,8.82
2023-04-22T02:43:01.609Z,7.65
2023-04-22T02:45:28.499Z,11.43
2023-04-22T02:47:55.555Z,7.88
2023-04-22T02:50:22.232Z,9.13
2023-04-22T02:52:48.702Z,9.82
2023-04-22T02:55:15.639Z,8.43
2023-04-22T02:57:42.093Z,8.48
2023-04-22T03:00:10.265Z,11.80
2023-04-22T03:02:37.168Z,12.35
2023-04-22T03:05:10.687Z,9.20
2023-04-22T03:07:37.164Z,11.35
2023-04-22T03:10:04.028Z,9.27
2023-04-22T03:12:30.561Z,7.82
2023-04-22T03:14:57.103Z,8.70
2023-04-22T03:17:28.003Z,13.15
2023-04-22T03:19:55.150Z,8.38
2023-04-22T03:22:21.783Z,7.68
2023-04-22T03:24:49.960Z,9.98
2023-04-22T03:27:16.597Z,8.35
2023-04-22T03:29:43.454Z,8.82
2023-04-22T03:32:11.021Z,10.80
2023-04-22T03:34:38.030Z,8.15
2023-04-22T03:37:07.293Z,7.35
2023-04-22T03:39:33.815Z,8.40
2023-04-22T03:42:01.511Z,8.80
2023-04-22T03:44:28.836Z,9.93
2023-04-22T03:46:55.590Z,7.57
2023-04-22T03:49:27.545Z,8.95
2023-04-22T03:51:55.884Z,8.15
2023-04-22T03:54:25.364Z,8.98
2023-04-22T03:56:52.751Z,8.00
2023-04-22T03:59:21.271Z,9.18
2023-04-22T04:01:51.508Z,8.15
2023-04-22T04:04:20.784Z,6.88
2023-04-22T04:06:52.514Z,7.75
2023-04-22T04:09:19.328Z,9.13
2023-04-22T04:11:46.497Z,8.20
2023-04-22T04:14:13.490Z,8.38
2023-04-22T04:16:47.213Z,9.90
2023-04-22T04:19:20.784Z,13.15
2023-04-22T04:21:47.314Z,8.23
2023-04-22T04:24:15.023Z,10.10
2023-04-22T04:26:48.791Z,12.02
2023-04-22T04:29:20.518Z,10.98
2023-04-22T04:31:56.568Z,11.27
2023-04-22T04:34:24.441Z,9.13
2023-04-22T04:36:50.961Z,12.02
2023-04-22T04:39:23.981Z,10.48
2023-04-22T04:41:55.048Z,9.38
2023-04-22T04:44:22.892Z,10.35
2023-04-22T04:46:50.666Z,11.75
2023-04-22T04:49:17.208Z,9.35
2023-04-22T04:52:01.943Z,9.00
2023-04-22T04:54:28.883Z,8.60
2023-04-22T04:56:57.329Z,10.40
2023-04-22T04:59:24.593Z,9.63
2023-04-22T05:01:51.499Z,11.55
2023-04-22T05:04:18.359Z,8.50
2023-04-22T05:06:45.017Z,8.32
2023-04-22T05:09:13.375Z,9.70
2023-04-22T05:11:40.486Z,9.73
2023-04-22T05:14:13.684Z,8.63
2023-04-22T05:16:42.397Z,7.60
2023-04-22T05:19:09.885Z,9.02
2023-04-22T05:21:36.613Z,8.70
2023-04-22T05:24:04.128Z,8.68
2023-04-22T05:26:30.609Z,7.10
2023-04-22T05:28:57.152Z,8.02
2023-04-22T05:31:23.680Z,6.50
2023-04-22T05:33:51.095Z,7.55
2023-04-22T05:36:19.098Z,10.52
2023-04-22T05:38:47.472Z,9.35
2023-04-22T05:41:14.817Z,9.43
2023-04-22T05:43:41.440Z,9.20
2023-04-22T05:46:14.742Z,7.35
2023-04-22T05:48:42.644Z,8.38
2023-04-22T05:51:19.999Z,10.90
2023-04-22T05:53:46.712Z,6.72
2023-04-22T05:56:13.293Z,9.00
2023-04-22T05:58:39.806Z,9.52
2023-04-22T06:01:11.186Z,8.75
2023-04-22T06:03:54.482Z,9.65
2023-04-22T06:06:22.853Z,9.98
2023-04-22T06:08:49.416Z,11.77
2023-04-22T06:11:16.063Z,9.02
2023-04-22T06:13:42.644Z,10.07
2023-04-22T06:16:09.578Z,9.95
2023-04-22T06:18:37.996Z,8.55
2023-04-22T06:21:07.890Z,8.45
2023-04-22T06:23:36.145Z,7.30
2023-04-22T06:26:02.767Z,7.00
2023-04-22T06:28:30.284Z,8.48
2023-04-22T06:31:01.357Z,6.47
2023-04-22T06:33:29.071Z,8.00
2023-04-22T06:35:55.551Z,7.68
2023-04-22T06:38:22.216Z,8.80
2023-04-22T06:41:22.179Z,8.73
2023-04-22T06:43:49.941Z,8.43
2023-04-22T06:46:49.337Z,14.07
2023-04-22T06:49:47.881Z,5.68
2023-04-22T06:52:24.310Z,6.72
2023-04-22T06:54:53.280Z,6.75
2023-04-22T06:57:19.793Z,7.43
2023-04-22T06:59:47.030Z,8.77
2023-04-22T07:02:14.754Z,9.35
2023-04-22T07:04:41.683Z,5.97
2023-04-22T07:07:08.394Z,6.10
2023-04-22T07:09:36.203Z,6.00
2023-04-22T07:12:02.799Z,5.93
2023-04-22T07:14:30.520Z,6.65
2023-04-22T07:16:56.957Z,4.53
2023-04-22T07:19:23.471Z,4.85
2023-04-22T07:21:49.966Z,5.90
2023-04-22T07:24:16.478Z,5.18
2023-04-22T07:26:44.350Z,5.90
2023-04-22T07:29:12.872Z,5.28
2023-04-22T07:31:39.357Z,7.28
2023-04-22T07:34:05.843Z,7.07
2023-04-22T07:36:33.128Z,4.72
2023-04-22T07:38:59.788Z,5.22
2023-04-22T07:41:26.211Z,5.35
2023-04-22T07:43:52.863Z,6.95
2023-04-22T07:46:19.585Z,4.97
2023-04-22T07:48:46.149Z,6.88
2023-04-22T07:51:12.592Z,6.80
2023-04-22T07:53:39.203Z,5.35
2023-04-22T07:56:05.675Z,7.13
2023-04-22T07:58:32.141Z,6.70
2023-04-22T08:00:58.644Z,8.02
2023-04-22T08:03:25.352Z,5.18
2023-04-22T08:05:52.060Z,6.45
2023-04-22T08:08:18.559Z,5.53
2023-04-22T08:10:44.974Z,11.75
2023-04-22T08:13:11.573Z,9.05
2023-04-22T08:15:38.044Z,5.75
2023-04-22T08:18:04.561Z,7.88
2023-04-22T08:20:31.104Z,4.30
2023-04-22T08:23:00.411Z,4.88
2023-04-22T08:25:27.850Z,6.20
2023-04-22T08:27:54.406Z,3.58
2023-04-22T08:30:20.891Z,3.78
2023-04-22T08:32:47.573Z,5.63
2023-04-22T08:35:14.187Z,4.28
2023-04-22T08:37:41.297Z,4.00
2023-04-22T08:40:08.657Z,6.57
2023-04-22T08:42:35.628Z,4.43
2023-04-22T08:45:05.798Z,4.57
2023-04-22T08:47:35.726Z,3.70
2023-04-22T08:50:04.176Z,4.53
2023-04-22T08:52:31.386Z,4.03
2023-04-22T08:54:57.808Z,3.33
2023-04-22T08:57:24.680Z,5.75
2023-04-22T08:59:51.929Z,3.85
2023-04-22T09:02:23.325Z,10.40
2023-04-22T09:04:51.597Z,7.82
2023-04-22T09:07:24.893Z,3.72
2023-04-22T09:09:53.148Z,4.97
2023-04-22T09:12:19.663Z,3.35
2023-04-22T09:14:46.138Z,3.83
2023-04-22T09:17:17.195Z,3.40
2023-04-22T09:19:43.853Z,4.30
2023-04-22T09:22:16.008Z,3.13
2023-04-22T09:24:51.653Z,5.95
2023-04-22T09:27:19.066Z,4.40
2023-04-22T09:29:52.932Z,3.05
2023-04-22T09:32:19.772Z,4.85
2023-04-22T09:34:49.265Z,3.05
2023-04-22T09:37:19.791Z,4.47
2023-04-22T09:39:49.753Z,2.90
2023-04-22T09:42:19.678Z,4.18
2023-04-22T09:44:48.240Z,8.93
2023-04-22T09:47:15.925Z,3.22
2023-04-22T09:49:49.873Z,4.05
2023-04-22T09:52:25.037Z,4.20
2023-04-22T09:54:54.629Z,4.80
2023-04-22T09:57:22.032Z,5.88
2023-04-22T09:59:51.002Z,6.03
2023-04-22T10:02:17.496Z,2.95
2023-04-22T10:04:44.313Z,3.60
2023-04-22T10:07:10.785Z,3.63
2023-04-22T10:09:37.645Z,4.57
2023-04-22T10:12:05.117Z,4.00
2023-04-22T10:14:31.623Z,5.68
2023-04-22T10:17:01.084Z,4.90
2023-04-22T10:19:28.805Z,3.83
2023-04-22T10:22:01.200Z,5.40
2023-04-22T10:24:29.246Z,4.13
2023-04-22T10:26:58.163Z,2.97
2023-04-22T10:29:26.403Z,3.42
2023-04-22T10:32:04.219Z,2.75
2023-04-22T10:34:34.263Z,3.10
2023-04-22T10:37:06.425Z,3.90
2023-04-22T10:39:33.216Z,4.30
2023-04-22T10:42:02.665Z,2.08
2023-04-22T10:44:44.778Z,3.17
2023-04-22T10:47:11.334Z,2.53
2023-04-22T10:49:38.292Z,2.85
2023-04-22T10:52:07.766Z,5.93
2023-04-22T10:54:37.021Z,3.33
2023-04-22T10:57:08.564Z,3.90
2023-04-22T10:59:41.933Z,2.60
2023-04-22T11:02:09.367Z,2.17
2023-04-22T11:04:37.263Z,2.17
2023-04-22T11:07:31.662Z,1.48
2023-04-22T11:10:07.691Z,3.22
2023-04-22T11:12:41.876Z,2.95
2023-04-22T11:15:10.837Z,3.30
2023-04-22T11:17:38.239Z,2.72
2023-04-22T11:20:07.104Z,2.13
2023-04-22T11:22:38.274Z,4.18
2023-04-22T11:25:06.278Z,1.52
2023-04-22T11:27:32.922Z,3.42
2023-04-22T11:30:05.291Z,1.38
2023-04-22T11:32:32.294Z,1.27
2023-04-22T11:34:58.874Z,1.10
2023-04-22T11:37:25.406Z,1.50
2023-04-22T11:40:13.782Z,1.40
2023-04-22T11:42:39.443Z,1.30
2023-04-22T11:45:07.272Z,3.40
2023-04-22T11:47:34.813Z,1.17
2023-04-22T11:50:05.051Z,1.50
2023-04-22T11:52:48.062Z,1.60
2023-04-22T11:55:21.938Z,2.78
2023-04-22T11:57:58.558Z,1.48
2023-04-22T12:00:33.930Z,1.80
2023-04-22T12:03:07.917Z,1.60
2023-04-22T12:05:40.223Z,2.42
2023-04-22T12:08:09.145Z,1.42
2023-04-22T12:10:43.808Z,2.03
2023-04-22T12:13:17.740Z,1.40
2023-04-22T12:15:44.958Z,1.17
2023-04-22T12:18:12.688Z,2.13
2023-04-22T12:20:41.137Z,1.30
2023-04-22T12:23:16.860Z,3.20
2023-04-22T12:25:43.505Z,1.42
2023-04-22T12:28:10.216Z,1.30
2023-04-22T12:30:36.687Z,1.67
2023-04-22T12:33:03.314Z,4.03
2023-04-22T12:35:29.704Z,1.70
2023-04-22T12:37:56.185Z,2.53
2023-04-22T12:40:22.682Z,1.52
2023-04-22T12:42:49.129Z,4.00
2023-04-22T12:45:16.720Z,1.70
2023-04-22T12:47:43.360Z,3.45
2023-04-22T12:50:09.821Z,1.73
2023-04-22T12:52:36.369Z,1.50
2023-04-22T12:55:02.872Z,1.90
2023-04-22T12:57:29.408Z,1.77
2023-04-22T12:59:56.584Z,1.40
2023-04-22T13:02:23.274Z,1.83
2023-04-22T13:04:49.706Z,2.42
2023-04-22T13:07:17.475Z,5.03
2023-04-22T13:09:44.373Z,1.80
2023-04-22T13:12:11.240Z,3.80
2023-04-22T13:14:37.734Z,2.72
2023-04-22T13:17:04.234Z,2.80
2023-04-22T13:19:31.813Z,3.95
2023-04-22T13:21:58.326Z,2.67
2023-04-22T13:24:24.754Z,2.75
2023-04-22T13:26:51.214Z,1.58
2023-04-22T13:29:17.760Z,1.83
2023-04-22T13:31:46.830Z,2.78
2023-04-22T13:34:13.368Z,3.17
2023-04-22T13:36:39.823Z,4.95
2023-04-22T13:39:06.414Z,11.68
2023-04-22T13:41:32.863Z,2.00
2023-04-22T13:43:59.682Z,9.88
2023-04-22T13:46:27.207Z,21.25
2023-04-22T13:48:54.334Z,8.13
2023-04-22T13:51:20.797Z,5.55
2023-04-22T13:53:47.276Z,5.00
2023-04-22T13:56:13.897Z,2.05
2023-04-22T13:58:42.425Z,2.08
2023-04-22T14:01:09.331Z,5.53
2023-04-22T14:03:36.539Z,2.05
2023-04-22T14:06:03.863Z,3.65
2023-04-22T14:08:30.406Z,2.00
2023-04-22T14:10:57.216Z,4.15
2023-04-22T14:13:23.695Z,3.17
2023-04-22T14:15:50.652Z,2.42
2023-04-22T14:18:17.173Z,3.75
2023-04-22T14:20:45.108Z,3.20
2023-04-22T14:23:11.842Z,2.08
2023-04-22T14:25:38.310Z,8.48
2023-04-22T14:28:04.829Z,3.75
2023-04-22T14:30:31.836Z,4.18
2023-04-22T14:32:58.829Z,3.15
2023-04-22T14:35:25.256Z,3.97
2023-04-22T14:37:51.737Z,2.00
2023-04-22T14:40:19.957Z,2.33
2023-04-22T14:42:46.966Z,1.98
2023-04-22T14:45:14.653Z,1.48
2023-04-22T14:47:41.206Z,2.53
2023-04-22T14:50:07.875Z,3.80
2023-04-22T14:52:34.466Z,2.95
2023-04-22T14:55:11.871Z,12.13
2023-04-22T14:57:47.612Z,2.65
2023-04-22T15:00:14.551Z,6.05
2023-04-22T15:02:41.208Z,3.28
2023-04-22T15:05:08.321Z,6.30
2023-04-22T15:07:34.845Z,6.13
2023-04-22T15:10:01.294Z,11.77
2023-04-22T15:12:28.265Z,8.35
2023-04-22T15:14:54.792Z,9.52
2023-04-22T15:17:21.509Z,5.13
2023-04-22T15:19:48.001Z,15.15
2023-04-22T15:22:14.406Z,15.07
2023-04-22T15:24:40.977Z,9.85
2023-04-22T15:27:07.546Z,4.95
2023-04-22T15:29:33.990Z,10.70
2023-04-22T15:32:02.066Z,8.23
2023-04-22T15:34:28.660Z,8.85
2023-04-22T15:36:55.114Z,7.32
2023-04-22T15:39:21.747Z,3.58
2023-04-22T15:41:48.265Z,6.60
2023-04-22T15:44:16.130Z,4.07
2023-04-22T15:46:42.648Z,6.78
2023-04-22T15:49:09.135Z,14.93
2023-04-22T15:51:35.728Z,3.78
2023-04-22T15:54:21.759Z,3.22
2023-04-22T15:56:48.246Z,4.13
2023-04-22T15:59:14.757Z,4.60
2023-04-22T16:01:41.912Z,3.80
2023-04-22T16:04:09.790Z,4.97
2023-04-22T16:06:38.042Z,4.43
2023-04-22T16:09:05.296Z,2.72
2023-04-22T16:11:31.785Z,2.40
2023-04-22T16:13:58.228Z,8.70
2023-04-22T16:16:25.931Z,4.85
2023-04-22T16:18:55.074Z,6.85
2023-04-22T16:21:21.556Z,4.55
2023-04-22T16:23:48.665Z,3.40
2023-04-22T16:26:15.575Z,4.38
2023-04-22T16:28:42.100Z,7.72
2023-04-22T16:31:08.935Z,4.80
2023-04-22T16:33:35.848Z,5.15
2023-04-22T16:36:02.312Z,6.65
2023-04-22T16:38:28.795Z,2.78
2023-04-22T16:40:55.262Z,6.03
2023-04-22T16:43:21.941Z,2.55
2023-04-22T16:45:48.844Z,2.67
2023-04-22T16:48:15.373Z,4.78
2023-04-22T16:50:41.839Z,5.95
2023-04-22T16:53:09.900Z,3.25
2023-04-22T16:55:37.110Z,4.63
2023-04-22T16:58:03.960Z,6.07
2023-04-22T17:00:30.682Z,4.30
2023-04-22T17:02:57.337Z,5.43
2023-04-22T17:05:23.836Z,5.22
2023-04-22T17:07:50.391Z,4.03
2023-04-22T17:10:16.908Z,6.45
2023-04-22T17:12:44.020Z,4.30
2023-04-22T17:15:11.761Z,2.60
2023-04-22T17:17:38.223Z,7.25
2023-04-22T17:20:06.565Z,4.30
2023-04-22T17:22:33.272Z,4.25
2023-04-22T17:24:59.760Z,5.75
2023-04-22T17:27:26.642Z,4.50
2023-04-22T17:29:53.061Z,6.88
2023-04-22T17:32:19.858Z,15.88
2023-04-22T17:34:46.425Z,5.05
2023-04-22T17:37:12.866Z,6.10
2023-04-22T17:39:40.274Z,6.40
2023-04-22T17:42:06.756Z,6.10
2023-04-22T17:44:33.385Z,12.00
2023-04-22T17:47:00.030Z,8.18
2023-04-22T17:49:26.602Z,8.27
2023-04-22T17:51:53.756Z,9.45
2023-04-22T17:54:20.286Z,7.95
2023-04-22T17:56:47.130Z,6.28
2023-04-22T17:59:13.549Z,6.30
2023-04-22T18:01:40.351Z,6.13
2023-04-22T18:04:06.990Z,6.70
2023-04-22T18:06:33.595Z,5.28
2023-04-22T18:09:00.104Z,4.22
2023-04-22T18:11:27.840Z,6.18
2023-04-22T18:13:54.811Z,4.13
2023-04-22T18:16:21.424Z,4.32
2023-04-22T18:18:47.829Z,5.88
2023-04-22T18:21:14.374Z,4.15
2023-04-22T18:23:40.908Z,9.05
2023-04-22T18:26:11.148Z,3.22
2023-04-22T18:28:40.110Z,2.70
2023-04-22T18:31:07.963Z,3.47
2023-04-22T18:33:35.288Z,6.50
2023-04-22T18:36:01.962Z,2.85
2023-04-22T18:38:28.453Z,5.05
2023-04-22T18:40:55.516Z,9.13
2023-04-22T18:43:22.241Z,6.20
2023-04-22T18:45:48.692Z,3.83
2023-04-22T18:48:18.737Z,5.50
2023-04-22T18:50:45.579Z,4.57
2023-04-22T18:53:12.050Z,6.57
2023-04-22T18:55:38.536Z,5.15
2023-04-22T18:58:04.970Z,3.78
2023-04-22T19:00:31.473Z,4.00
2023-04-22T19:02:58.065Z,4.43
2023-04-22T19:05:24.895Z,6.22
2023-04-22T19:07:51.869Z,7.93
2023-04-22T19:10:18.567Z,7.13
2023-04-22T19:12:45.026Z,5.70
2023-04-22T19:15:11.719Z,7.57
2023-04-22T19:17:38.602Z,3.53
2023-04-22T19:20:06.362Z,7.53
2023-04-22T19:22:32.883Z,3.22
2023-04-22T19:24:59.348Z,6.13
2023-04-22T19:27:25.846Z,4.75
2023-04-22T19:29:53.464Z,3.88
2023-04-22T19:32:20.852Z,5.50
2023-04-22T19:34:47.733Z,4.68
2023-04-22T19:37:14.198Z,3.10
2023-04-22T19:39:40.854Z,4.10
2023-04-22T19:42:07.692Z,3.22
2023-04-22T19:44:34.273Z,6.63
2023-04-22T19:47:01.286Z,4.25
2023-04-22T19:49:28.601Z,7.40
2023-04-22T19:51:56.757Z,3.95
2023-04-22T19:54:26.478Z,4.90
2023-04-22T19:56:53.175Z,6.90
2023-04-22T19:59:19.749Z,6.32
2023-04-22T20:01:46.437Z,5.18
2023-04-22T20:04:13.253Z,9.23
2023-04-22T20:06:40.500Z,6.32
2023-04-22T20:09:07.393Z,3.25
2023-04-22T20:11:34.788Z,3.45
2023-04-22T20:14:02.060Z,5.22
2023-04-22T20:16:28.767Z,4.72
2023-04-22T20:18:55.317Z,5.80
2023-04-22T20:21:23.105Z,14.27
2023-04-22T20:23:51.086Z,13.13
2023-04-22T20:26:19.013Z,5.93
2023-04-22T20:28:48.190Z,9.02
2023-04-22T20:31:18.684Z,10.25
2023-04-22T20:33:45.508Z,7.63
2023-04-22T20:36:14.737Z,4.57
2023-04-22T20:38:43.028Z,5.13
2023-04-22T20:41:10.113Z,5.80
2023-04-22T20:43:36.634Z,4.47
2023-04-22T20:46:03.348Z,6.68
2023-04-22T20:48:29.837Z,5.72
2023-04-22T20:50:56.291Z,6.80
2023-04-22T20:53:23.703Z,6.50
2023-04-22T20:55:50.902Z,9.73
2023-04-22T20:58:17.304Z,7.90
2023-04-22T21:00:43.839Z,7.43
2023-04-22T21:03:11.087Z,5.78
2023-04-22T21:05:42.498Z,7.97
2023-04-22T21:08:23.143Z,6.65
2023-04-22T21:10:52.102Z,6.45
2023-04-22T21:13:19.209Z,6.25
2023-04-22T21:15:59.075Z,12.18
2023-04-22T21:18:27.801Z,5.45
2023-04-22T21:20:56.368Z,5.22
2023-04-22T21:23:26.691Z,5.63
2023-04-22T21:25:57.194Z,20.80
2023-04-22T21:28:24.035Z,17.10
2023-04-22T21:30:50.834Z,10.48
2023-04-22T21:33:17.314Z,6.50
2023-04-22T21:35:43.957Z,6.95
2023-04-22T21:38:10.611Z,5.70
2023-04-22T21:40:37.079Z,6.43
2023-04-22T21:43:04.676Z,5.15
2023-04-22T21:45:31.284Z,5.25
2023-04-22T21:48:01.018Z,13.55
2023-04-22T21:50:30.026Z,6.32
2023-04-22T21:52:56.698Z,4.82
2023-04-22T21:55:23.141Z,6.20
2023-04-22T21:57:49.651Z,5.63
2023-04-22T22:00:18.589Z,6.78
2023-04-22T22:02:46.203Z,5.15
2023-04-22T22:05:14.702Z,8.05
2023-04-22T22:07:42.452Z,5.32
2023-04-22T22:10:12.005Z,10.68
2023-04-22T22:12:38.493Z,7.10
2023-04-22T22:15:11.831Z,4.90
2023-04-22T22:17:40.070Z,6.88
2023-04-22T22:20:11.154Z,5.75
2023-04-22T22:22:41.981Z,7.65
2023-04-22T22:25:10.897Z,6.53
2023-04-22T22:27:40.744Z,5.82
2023-04-22T22:30:08.478Z,5.57
2023-04-22T22:32:35.359Z,5.85
2023-04-22T22:35:02.057Z,6.53
2023-04-22T22:37:28.665Z,8.15
2023-04-22T22:39:55.154Z,6.93
2023-04-22T22:42:21.696Z,6.70
2023-04-22T22:44:48.157Z,5.07
2023-04-22T22:47:17.435Z,6.15
2023-04-22T22:49:44.708Z,6.20
2023-04-22T22:52:12.157Z,4.88
2023-04-22T22:54:40.431Z,4.70
2023-04-22T22:57:07.446Z,5.82
2023-04-22T22:59:34.552Z,6.63
2023-04-22T23:02:01.165Z,4.35
2023-04-22T23:04:28.322Z,4.50
2023-04-22T23:06:55.703Z,4.93
2023-04-22T23:09:22.348Z,4.95
2023-04-22T23:11:51.730Z,4.75
2023-04-22T23:14:19.964Z,6.53
2023-04-22T23:16:47.546Z,4.78
2023-04-22T23:19:14.818Z,6.07
2023-04-22T23:21:42.144Z,8.45
2023-04-22T23:24:13.409Z,5.00
2023-04-22T23:29:07.381Z,6.45
2023-04-22T23:31:35.181Z,4.90
2023-04-22T23:34:03.612Z,5.40
2023-04-22T23:36:32.963Z,6.15
2023-04-22T23:39:03.411Z,3.92
2023-04-22T23:41:29.952Z,4.43
2023-04-22T23:43:56.453Z,5.75
2023-04-22T23:46:23.122Z,5.78
2023-04-22T23:48:49.880Z,4.35
2023-04-22T23:51:16.739Z,5.75
2023-04-22T23:53:44.355Z,5.43
2023-04-22T23:56:11.881Z,5.15
2023-04-22T23:58:39.006Z,3.85
